Lysa Hora, Czech Republic
Current Conditions -  °F | °C
As of 7:30 AM on Wednesday 26 Nov 2014 (Local Time) from LKMT Reporting Station
Moderate Fog Moderate Fog  
Wind Chill: 30°   Ceiling: 200
Heat Index: 30°   Visibility: 0.31mi
Dew Point: 28°   Wind: 0mph
Humidity: 93%   Direction: NA
Pressure: 30.27"   Gusts: NA
Location:  49.55°N, 18.45°E
Report Text: LKMT 260530Z 00000KT 0500 R22/0900N R04/1000U FZFG VV002M01/M02 Q1025 NOSIG
Loading
Personal Weather Stations






























Interactive Weather Map New forecast layout! Learn more

10-Day Weather Forecast

Advertisements
Track Severe Weather on mobile